Time;durP1;ratioP1;P1;durP2;ratioP2;P2;SDS_P1;SDS_P2;PMS_P1;PMS_P2;Temp;Humidity;BMP_temperature;BMP_pressure;BME280_temperature;BME280_humidity;BME280_pressure;Samples;Min_cycle;Max_cycle;Signal;HPM_P1;HPM_P2
2023/07/08 00:01:21;;;;;;;0.82;0.60;;;17.80;55.50;;;;;;5093024;28;20496;-80
2023/07/08 00:03:48;;;;;;;;;;;17.80;55.50;;;;;;5093820;28;20556;-80
2023/07/08 00:06:32;;;;;;;0.20;0.20;;;17.80;55.10;;;;;;5075977;28;19969;-80
2023/07/08 00:08:59;;;;;;;0.80;0.57;;;17.80;55.40;;;;;;5093211;28;20058;-80
2023/07/08 00:11:25;;;;;;;;;;;17.80;55.20;;;;;;5093428;28;20485;-80
2023/07/08 00:13:51;;;;;;;7.82;0.55;;;17.80;55.10;;;;;;5076136;28;19944;-80
2023/07/08 00:16:19;;;;;;;0.85;0.52;;;17.80;55.30;;;;;;5094200;28;20032;-80
2023/07/08 00:18:46;;;;;;;0.25;0.25;;;17.70;55.40;;;;;;5093108;28;20036;-80
2023/07/08 00:21:31;;;;;;;0.30;0.30;;;17.60;55.40;;;;;;5075465;28;20032;-80
2023/07/08 00:23:57;;;;;;;0.47;0.30;;;17.60;55.80;;;;;;5093045;28;20032;-80
2023/07/08 00:26:43;;;;;;;0.95;0.85;;;17.50;56.00;;;;;;5075671;28;20032;-81
2023/07/08 00:29:10;;;;;;;5.45;1.05;;;17.40;56.00;;;;;;5076057;28;20047;-80
2023/07/08 00:31:36;;;;;;;0.30;0.30;;;17.40;56.10;;;;;;5093897;28;20440;-80
2023/07/08 00:34:03;;;;;;;0.88;0.68;;;17.40;56.30;;;;;;5092280;28;20488;-80
2023/07/08 00:36:30;;;;;;;0.30;0.20;;;17.40;56.00;;;;;;5075520;28;20477;-81
2023/07/08 00:38:57;;;;;;;0.95;0.30;;;17.40;56.00;;;;;;5092784;28;20028;-81
2023/07/08 00:41:45;;;;;;;0.30;0.30;;;17.40;55.90;;;;;;5075326;28;20055;-80
2023/07/08 00:44:12;;;;;;;0.10;0.10;;;17.50;56.00;;;;;;5075803;28;20035;-81
2023/07/08 00:47:15;;;;;;;0.98;0.38;;;17.40;55.90;;;;;;5075211;28;20090;-81
2023/07/08 00:50:05;;;;;;;0.40;0.35;;;17.50;56.00;;;;;;5093678;28;20039;-80
2023/07/08 00:52:31;;;;;;;2.20;0.88;;;17.40;56.00;;;;;;5075935;28;20127;-80
2023/07/08 00:55:20;;;;;;;0.63;0.35;;;17.40;56.20;;;;;;5092522;28;20439;-81
2023/07/08 00:57:46;;;;;;;0.70;0.30;;;17.40;56.40;;;;;;5092341;28;20062;-81
2023/07/08 01:00:15;;;;;;;;;;;17.30;56.50;;;;;;5075393;28;20060;-80
2023/07/08 01:03:00;;;;;;;0.63;0.40;;;17.30;56.40;;;;;;5092683;28;20316;-79
2023/07/08 01:05:29;;;;;;;1.10;0.73;;;17.30;56.80;;;;;;5091594;28;20093;-80
2023/07/08 01:07:59;;;;;;;3.10;0.75;;;17.20;56.50;;;;;;5075300;28;20508;-81
2023/07/08 01:11:03;;;;;;;0.30;0.30;;;17.20;56.70;;;;;;5074635;28;20054;-82
2023/07/08 01:13:39;;;;;;;0.70;0.70;;;17.10;56.60;;;;;;5075336;28;20064;-80
2023/07/08 01:16:07;;;;;;;1.08;0.57;;;16.90;56.80;;;;;;5074816;28;20032;-80
2023/07/08 01:18:34;;;;;;;0.17;0.17;;;16.90;56.90;;;;;;5092149;28;20043;-81
2023/07/08 01:21:40;;;;;;;1.70;1.13;;;16.80;57.00;;;;;;5091456;28;20031;-81
2023/07/08 01:24:10;;;;;;;0.43;0.22;;;16.80;56.90;;;;;;5093286;28;20054;-81
2023/07/08 01:26:42;;;;;;;0.63;0.63;;;16.80;57.10;;;;;;5074744;28;20147;-80
2023/07/08 01:29:08;;;;;;;0.32;0.32;;;16.80;56.80;;;;;;5074886;28;20489;-79
2023/07/08 01:31:35;;;;;;;0.22;0.22;;;16.90;57.10;;;;;;5091544;28;20031;-80
2023/07/08 01:34:01;;;;;;;1.98;0.22;;;16.80;56.30;;;;;;5074997;28;20036;-81
2023/07/08 01:36:31;;;;;;;;;;;16.90;56.90;;;;;;5075393;28;20477;-81
2023/07/08 01:38:58;;;;;;;0.10;0.10;;;16.80;56.40;;;;;;5091962;28;20403;-81
2023/07/08 01:41:24;;;;;;;;;;;16.80;56.70;;;;;;5092173;28;20408;-80
2023/07/08 01:43:50;;;;;;;0.28;0.25;;;16.80;56.70;;;;;;5074836;28;19922;-80
2023/07/08 01:46:34;;;;;;;1.45;0.57;;;16.70;57.10;;;;;;5073679;28;20431;-80
2023/07/08 01:49:02;;;;;;;0.75;0.32;;;16.70;57.20;;;;;;5091942;28;20131;-81
2023/07/08 01:51:28;;;;;;;8.68;1.05;;;16.80;57.20;;;;;;5074418;28;20028;-81
2023/07/08 01:53:54;;;;;;;0.35;0.20;;;16.70;56.80;;;;;;5092971;28;20047;-82
2023/07/08 01:56:20;;;;;;;0.85;0.35;;;16.70;57.70;;;;;;5092889;28;20032;-82
2023/07/08 01:58:46;;;;;;;0.90;0.55;;;16.70;57.40;;;;;;5092954;28;20039;-80
2023/07/08 02:01:12;;;;;;;1.23;1.08;;;16.70;57.80;;;;;;5074160;28;20055;-80
2023/07/08 02:03:39;;;;;;;0.65;0.52;;;16.70;57.80;;;;;;5092716;28;20047;-80
2023/07/08 02:06:06;;;;;;;0.10;0.10;;;16.70;57.80;;;;;;5074358;28;20042;-80
2023/07/08 02:08:32;;;;;;;0.95;0.60;;;16.70;57.80;;;;;;5091598;28;20613;-80
2023/07/08 02:10:59;;;;;;;0.45;0.45;;;16.70;58.00;;;;;;5074298;28;20522;-80
2023/07/08 02:13:26;;;;;;;0.70;0.47;;;16.70;57.90;;;;;;5091687;28;20093;-80
2023/07/08 02:15:52;;;;;;;0.38;0.20;;;16.70;57.70;;;;;;5074137;28;20036;-80
2023/07/08 02:18:18;;;;;;;;;;;16.70;57.90;;;;;;5093292;28;20396;-81
2023/07/08 02:20:46;;;;;;;0.43;0.28;;;16.70;58.00;;;;;;5090932;28;19982;-80
2023/07/08 02:23:13;;;;;;;0.10;0.10;;;16.70;57.80;;;;;;5091657;28;20032;-80
2023/07/08 02:25:39;;;;;;;0.20;0.17;;;16.70;58.00;;;;;;5090785;28;20032;-81
2023/07/08 02:28:05;;;;;;;1.00;0.13;;;16.70;58.00;;;;;;5074761;28;20040;-80
2023/07/08 02:30:31;;;;;;;1.05;0.57;;;16.70;58.30;;;;;;5092122;28;20044;-81
2023/07/08 02:32:57;;;;;;;0.22;0.22;;;16.70;58.30;;;;;;5092873;28;20035;-81
2023/07/08 02:35:42;;;;;;;0.50;0.35;;;16.70;58.10;;;;;;5090890;28;20043;-80
2023/07/08 02:38:08;;;;;;;0.88;0.60;;;16.70;58.00;;;;;;5074498;28;20056;-80
2023/07/08 02:40:34;;;;;;;1.17;0.95;;;16.60;58.00;;;;;;5090767;28;20389;-81
2023/07/08 02:43:00;;;;;;;1.65;0.60;;;16.60;58.20;;;;;;5092756;28;20032;-79
2023/07/08 02:45:26;;;;;;;0.10;0.10;;;16.50;58.50;;;;;;5090932;28;20047;-82
2023/07/08 02:47:52;;;;;;;0.20;0.20;;;16.50;59.40;;;;;;5092490;28;20040;-80
2023/07/08 02:50:18;;;;;;;0.35;0.20;;;16.50;58.60;;;;;;5073694;28;20034;-80
2023/07/08 02:52:44;;;;;;;;;;;16.40;58.60;;;;;;5074811;28;20082;-81
2023/07/08 02:55:10;;;;;;;0.80;0.40;;;16.50;58.50;;;;;;5090788;28;19913;-82
2023/07/08 02:57:37;;;;;;;0.30;0.30;;;16.40;58.50;;;;;;5094769;28;20439;-81
2023/07/08 03:02:48;;;;;;;0.90;0.17;;;16.40;58.10;;;;;;5095043;28;20070;-81
2023/07/08 03:05:14;;;;;;;1.23;0.80;;;16.50;58.90;;;;;;5094106;28;20093;-80
2023/07/08 03:07:40;;;;;;;;;;;16.50;58.90;;;;;;5095195;28;20054;-81
2023/07/08 03:10:07;;;;;;;0.68;0.57;;;16.50;59.70;;;;;;5093943;28;19951;-80
2023/07/08 03:12:33;;;;;;;0.52;0.45;;;16.50;58.40;;;;;;5077963;28;20047;-80
2023/07/08 03:14:59;;;;;;;0.68;0.50;;;16.60;58.80;;;;;;5094455;28;20035;-80
2023/07/08 03:17:25;;;;;;;0.65;0.30;;;16.60;58.80;;;;;;5095711;28;20082;-81
2023/07/08 03:19:51;;;;;;;0.70;0.70;;;16.60;58.70;;;;;;5094353;28;20505;-80
2023/07/08 03:22:17;;;;;;;;;;;16.60;58.50;;;;;;5094626;28;20078;-82
2023/07/08 03:24:46;;;;;;;0.55;0.45;;;16.60;58.40;;;;;;5094221;28;20266;-82
2023/07/08 03:27:14;;;;;;;0.22;0.22;;;16.60;58.00;;;;;;5094224;28;20032;-80
2023/07/08 03:29:40;;;;;;;0.30;0.22;;;16.60;58.60;;;;;;5094310;28;20123;-80
2023/07/08 03:32:27;;;;;;;0.20;0.20;;;16.70;58.70;;;;;;5093947;28;20032;-82
2023/07/08 03:34:53;;;;;;;1.20;0.50;;;16.70;58.50;;;;;;5077184;28;20051;-82
2023/07/08 03:37:19;;;;;;;0.45;0.32;;;16.70;58.60;;;;;;5095380;28;20384;-81
2023/07/08 03:39:45;;;;;;;0.75;0.30;;;16.70;58.60;;;;;;5094172;28;20056;-80
2023/07/08 03:42:11;;;;;;;0.85;0.40;;;16.80;58.60;;;;;;5076873;28;20028;-80
2023/07/08 03:44:37;;;;;;;;;;;16.80;59.00;;;;;;5095658;28;20036;-80
2023/07/08 03:47:04;;;;;;;0.10;0.10;;;16.80;58.60;;;;;;5093824;28;20490;-81
2023/07/08 03:49:30;;;;;;;0.98;0.82;;;16.70;58.40;;;;;;5093736;28;20035;-81
2023/07/08 03:51:56;;;;;;;0.32;0.32;;;16.80;58.90;;;;;;5076607;28;20028;-80
2023/07/08 03:54:24;;;;;;;1.00;0.30;;;16.80;58.90;;;;;;5093639;28;20576;-81
2023/07/08 03:56:51;;;;;;;0.20;0.20;;;16.80;58.90;;;;;;5076552;28;20039;-81
2023/07/08 03:59:18;;;;;;;0.77;0.68;;;16.80;59.20;;;;;;5093654;28;20039;-82
2023/07/08 04:01:44;;;;;;;4.43;0.63;;;16.70;59.60;;;;;;5093226;28;20039;-81
2023/07/08 04:04:14;;;;;;;1.00;0.85;;;16.70;60.00;;;;;;5094833;28;20404;-80
2023/07/08 04:06:40;;;;;;;0.20;0.20;;;16.70;60.30;;;;;;5093190;28;20032;-81
2023/07/08 04:09:06;;;;;;;0.60;0.38;;;16.60;60.60;;;;;;5093821;28;20511;-81
2023/07/08 04:11:33;;;;;;;0.55;0.30;;;16.60;60.30;;;;;;5093179;28;20127;-80
2023/07/08 04:13:59;;;;;;;0.40;0.25;;;16.60;60.70;;;;;;5076458;28;20040;-82
2023/07/08 04:16:47;;;;;;;;;;;16.60;61.40;;;;;;5076538;28;20060;-80
2023/07/08 04:19:15;;;;;;;0.20;0.20;;;16.60;61.10;;;;;;5093169;28;20351;-81
2023/07/08 04:21:43;;;;;;;0.57;0.35;;;16.60;60.80;;;;;;5075974;28;20439;-82
2023/07/08 04:24:28;;;;;;;1.08;0.82;;;16.70;60.60;;;;;;5076257;28;20047;-81
2023/07/08 04:26:54;;;;;;;0.10;0.10;;;16.80;60.50;;;;;;5092751;28;20032;-80
2023/07/08 04:29:22;;;;;;;0.38;0.28;;;16.80;60.30;;;;;;5076298;28;20375;-81
2023/07/08 04:31:48;;;;;;;2.42;1.50;;;16.90;60.20;;;;;;5092882;28;20032;-82
2023/07/08 04:34:16;;;;;;;0.73;0.73;;;16.90;60.10;;;;;;5092990;28;20073;-80
2023/07/08 04:36:43;;;;;;;0.20;0.20;;;17.00;59.90;;;;;;5092672;28;20484;-80
2023/07/08 04:39:10;;;;;;;0.47;0.38;;;17.10;60.20;;;;;;5075899;28;20036;-80
2023/07/08 04:41:56;;;;;;;1.20;0.77;;;17.10;60.10;;;;;;5075629;28;20036;-80
2023/07/08 04:44:24;;;;;;;0.43;0.40;;;17.20;60.10;;;;;;5092912;28;20039;-80
2023/07/08 04:46:54;;;;;;;1.15;0.60;;;17.30;60.10;;;;;;5075560;28;20039;-81
2023/07/08 04:49:22;;;;;;;2.75;0.52;;;17.30;59.90;;;;;;5092812;28;20032;-80
2023/07/08 04:51:50;;;;;;;0.80;0.47;;;17.40;59.80;;;;;;5075593;28;20114;-81
2023/07/08 04:54:16;;;;;;;0.65;0.65;;;17.50;60.20;;;;;;5092608;28;20032;-80
2023/07/08 04:56:47;;;;;;;1.23;0.43;;;17.60;60.30;;;;;;5093625;28;20042;-80
2023/07/08 04:59:17;;;;;;;0.50;0.35;;;17.60;60.00;;;;;;5092615;28;20079;-81
2023/07/08 05:01:43;;;;;;;0.55;0.47;;;17.70;60.10;;;;;;5093162;28;20107;-80
2023/07/08 05:04:14;;;;;;;1.40;0.73;;;17.80;60.10;;;;;;5092252;28;20044;-80
2023/07/08 05:06:40;;;;;;;1.30;1.00;;;17.80;60.90;;;;;;5074928;28;20051;-80
2023/07/08 05:09:07;;;;;;;1.45;0.90;;;17.90;61.40;;;;;;5092286;28;20081;-80
2023/07/08 05:11:34;;;;;;;4.45;1.05;;;18.00;61.40;;;;;;5091482;28;20048;-80
2023/07/08 05:14:02;;;;;;;0.52;0.38;;;18.00;61.40;;;;;;5093282;28;20036;-80
2023/07/08 05:16:28;;;;;;;0.98;0.50;;;18.10;61.60;;;;;;5074669;28;20036;-80
2023/07/08 05:18:54;;;;;;;0.15;0.15;;;18.10;61.20;;;;;;5091921;28;20452;-80
2023/07/08 05:21:21;;;;;;;2.13;0.40;;;18.20;61.70;;;;;;5074616;28;20035;-80
2023/07/08 05:23:49;;;;;;;1.00;0.47;;;18.30;61.70;;;;;;5092010;28;20063;-80
2023/07/08 05:26:16;;;;;;;0.93;0.50;;;18.30;62.40;;;;;;5074585;28;20063;-80
2023/07/08 05:28:42;;;;;;;0.85;0.63;;;18.40;62.50;;;;;;5091814;28;20055;-80
2023/07/08 05:31:08;;;;;;;1.60;0.80;;;18.50;61.90;;;;;;5091346;28;20036;-80
2023/07/08 05:33:34;;;;;;;1.35;0.45;;;18.60;61.20;;;;;;5091823;28;20037;-80
2023/07/08 05:36:01;;;;;;;0.57;0.30;;;18.70;61.40;;;;;;5074458;28;20028;-81
2023/07/08 05:38:28;;;;;;;0.52;0.50;;;18.70;60.90;;;;;;5074954;28;20032;-80
2023/07/08 05:40:57;;;;;;;0.10;0.10;;;18.80;60.60;;;;;;5091189;28;20110;-80
2023/07/08 05:43:24;;;;;;;1.33;0.50;;;18.90;60.20;;;;;;5091781;28;20028;-80
2023/07/08 05:45:50;;;;;;;0.75;0.55;;;18.90;60.20;;;;;;5090925;28;20058;-79
2023/07/08 05:48:16;;;;;;;1.00;0.60;;;19.00;60.60;;;;;;5091742;28;20092;-79
2023/07/08 05:50:44;;;;;;;;;;;19.00;61.80;;;;;;5074841;28;20426;-80
2023/07/08 05:53:11;;;;;;;0.75;0.55;;;18.90;62.30;;;;;;5091771;28;20019;-81
2023/07/08 05:55:38;;;;;;;2.17;1.30;;;18.90;62.70;;;;;;5092381;28;20062;-79
2023/07/08 05:58:04;;;;;;;0.40;0.40;;;19.00;62.20;;;;;;5074809;28;20406;-80
2023/07/08 06:00:30;;;;;;;;;;;19.10;62.40;;;;;;5092836;28;20039;-79
2023/07/08 06:02:56;;;;;;;0.28;0.28;;;19.10;62.30;;;;;;5091601;28;19926;-81
2023/07/08 06:05:22;;;;;;;0.88;0.82;;;19.20;61.70;;;;;;5074143;28;20044;-81
2023/07/08 06:07:48;;;;;;;0.43;0.35;;;19.30;61.60;;;;;;5074587;28;20042;-80
2023/07/08 06:10:14;;;;;;;0.85;0.85;;;19.40;61.10;;;;;;5092062;28;20040;-80
2023/07/08 06:12:41;;;;;;;;;;;19.50;61.20;;;;;;5091992;28;20036;-80
2023/07/08 06:15:07;;;;;;;1.50;0.52;;;19.50;60.80;;;;;;5074140;28;19919;-80
2023/07/08 06:17:33;;;;;;;1.25;1.05;;;19.70;59.40;;;;;;5091317;28;20119;-80
2023/07/08 06:19:59;;;;;;;0.88;0.75;;;19.80;59.60;;;;;;5091340;28;20028;-80
2023/07/08 06:22:25;;;;;;;0.75;0.50;;;20.00;59.30;;;;;;5091016;28;20042;-79
2023/07/08 06:24:51;;;;;;;1.35;1.13;;;20.10;59.00;;;;;;5091265;28;20044;-79
2023/07/08 06:27:17;;;;;;;1.73;1.17;;;20.20;58.70;;;;;;5091022;28;20534;-80
2023/07/08 06:29:44;;;;;;;;;;;20.30;58.50;;;;;;5091540;28;20119;-81
2023/07/08 06:32:10;;;;;;;1.85;1.65;;;20.40;57.80;;;;;;5094366;28;20271;-80
2023/07/08 06:34:36;;;;;;;1.10;0.98;;;20.60;58.20;;;;;;5096334;28;20048;-80
2023/07/08 06:37:02;;;;;;;0.30;0.20;;;20.70;57.70;;;;;;5094522;28;20032;-80
2023/07/08 06:39:28;;;;;;;;;;;20.80;57.30;;;;;;5095532;28;20036;-80
2023/07/08 06:41:54;;;;;;;1.73;0.68;;;21.00;57.20;;;;;;5096049;28;19965;-79
2023/07/08 06:44:20;;;;;;;0.35;0.30;;;21.00;57.40;;;;;;5078226;28;20046;-79
2023/07/08 06:46:46;;;;;;;;;;;21.10;57.20;;;;;;5096171;28;20058;-79
2023/07/08 06:49:12;;;;;;;0.80;0.63;;;21.30;57.10;;;;;;5078191;28;20019;-80
2023/07/08 06:51:39;;;;;;;;;;;21.30;56.30;;;;;;5077948;28;20025;-80
2023/07/08 06:54:11;;;;;;;1.23;1.02;;;21.40;56.10;;;;;;5095037;28;19920;-80
2023/07/08 06:56:39;;;;;;;0.80;0.52;;;21.50;55.70;;;;;;5095750;28;20496;-80
2023/07/08 06:59:06;;;;;;;0.75;0.60;;;21.60;55.60;;;;;;5077769;28;20032;-81
2023/07/08 07:01:32;;;;;;;1.33;0.93;;;21.60;55.20;;;;;;5094205;28;20036;-80
2023/07/08 07:03:59;;;;;;;;;;;21.80;54.70;;;;;;5096598;28;20499;-80
2023/07/08 07:06:25;;;;;;;1.75;1.20;;;21.90;54.40;;;;;;5077310;28;19934;-80
2023/07/08 07:08:51;;;;;;;1.30;0.77;;;22.00;53.20;;;;;;5077576;28;20067;-80
2023/07/08 07:11:19;;;;;;;;;;;22.20;53.30;;;;;;5094451;28;20052;-80
2023/07/08 07:13:46;;;;;;;0.20;0.20;;;22.40;53.50;;;;;;5094336;28;20384;-80
2023/07/08 07:16:12;;;;;;;1.00;0.90;;;22.50;52.70;;;;;;5076776;28;20036;-80
2023/07/08 07:18:38;;;;;;;;;;;22.80;52.70;;;;;;5094798;28;20028;-79
2023/07/08 07:21:04;;;;;;;0.20;0.20;;;22.90;52.60;;;;;;5093563;28;19922;-80
2023/07/08 07:23:30;;;;;;;0.63;0.45;;;23.00;51.70;;;;;;5077095;28;20109;-84
2023/07/08 07:25:57;;;;;;;0.75;0.47;;;23.00;52.20;;;;;;5093363;28;20050;-81
2023/07/08 07:28:23;;;;;;;1.17;0.95;;;23.00;51.60;;;;;;5093822;28;20032;-81
2023/07/08 07:30:58;;;;;;;0.60;0.60;;;23.00;49.90;;;;;;5093400;28;20036;-80
2023/07/08 07:33:24;;;;;;;0.50;0.47;;;23.20;50.80;;;;;;5094396;28;20028;-79
2023/07/08 07:35:50;;;;;;;0.40;0.28;;;23.20;51.30;;;;;;5093094;28;20115;-79
2023/07/08 07:38:16;;;;;;;;;;;23.30;50.80;;;;;;5094348;28;20078;-81
2023/07/08 07:40:43;;;;;;;0.32;0.32;;;23.40;50.90;;;;;;5093284;28;19916;-79
2023/07/08 07:43:10;;;;;;;0.45;0.35;;;23.50;50.30;;;;;;5095165;28;20120;-80
2023/07/08 07:45:36;;;;;;;0.77;0.45;;;23.70;50.10;;;;;;5093016;28;20062;-79
2023/07/08 07:48:03;;;;;;;;;;;23.90;50.40;;;;;;5094088;28;20035;-79
2023/07/08 07:50:29;;;;;;;0.88;0.88;;;24.00;50.30;;;;;;5076236;28;19939;-80
2023/07/08 07:52:55;;;;;;;1.85;1.02;;;24.10;49.60;;;;;;5093654;28;20120;-79
2023/07/08 07:55:21;;;;;;;;;;;24.30;49.40;;;;;;5076639;28;20392;-80
2023/07/08 07:57:47;;;;;;;0.60;0.45;;;24.40;49.70;;;;;;5093469;28;19916;-78
2023/07/08 08:00:14;;;;;;;;;;;24.40;48.60;;;;;;5093413;28;20024;-79
2023/07/08 08:02:59;;;;;;;0.22;0.22;;;24.40;48.20;;;;;;5093543;28;19916;-80
2023/07/08 08:05:25;;;;;;;2.15;1.13;;;24.40;47.50;;;;;;5092977;28;20549;-79
2023/07/08 08:07:51;;;;;;;0.77;0.45;;;24.50;47.80;;;;;;5093212;28;20028;-79
2023/07/08 08:10:17;;;;;;;0.45;0.45;;;24.60;47.20;;;;;;5075609;28;20485;-80
2023/07/08 08:12:43;;;;;;;;;;;24.70;46.70;;;;;;5094892;28;20089;-80
2023/07/08 08:15:10;;;;;;;2.05;0.65;;;24.80;47.10;;;;;;5092685;28;19916;-81
2023/07/08 08:17:36;;;;;;;0.55;0.45;;;24.80;45.80;;;;;;5093050;28;20127;-79
2023/07/08 08:20:02;;;;;;;;;;;25.00;46.50;;;;;;5093452;28;20145;-79
2023/07/08 08:22:28;;;;;;;0.65;0.63;;;25.20;46.60;;;;;;5092761;28;19942;-80
2023/07/08 08:24:54;;;;;;;1.63;0.95;;;25.30;46.10;;;;;;5093006;28;20445;-79
2023/07/08 08:27:20;;;;;;;0.45;0.40;;;25.40;45.80;;;;;;5092703;28;20028;-79
2023/07/08 08:29:46;;;;;;;0.88;0.40;;;25.50;45.10;;;;;;5076083;28;20062;-80
2023/07/08 08:32:14;;;;;;;1.50;0.73;;;25.60;44.50;;;;;;5075737;28;20032;-81
2023/07/08 08:34:40;;;;;;;1.63;0.95;;;25.70;44.30;;;;;;5075975;28;20036;-79
2023/07/08 08:37:07;;;;;;;0.70;0.50;;;25.70;43.60;;;;;;5059344;28;20123;-78
2023/07/08 08:39:33;;;;;;;1.50;0.95;;;25.80;43.20;;;;;;5092868;28;20420;-85
2023/07/08 08:41:59;;;;;;;0.20;0.20;;;25.80;43.00;;;;;;5075723;28;20034;-81
2023/07/08 08:44:45;;;;;;;0.73;0.45;;;25.80;43.10;;;;;;5092757;28;20039;-80
2023/07/08 08:47:50;;;;;;;0.55;0.38;;;25.80;42.50;;;;;;5092271;28;20094;-85
2023/07/08 08:50:55;;;;;;;1.00;0.75;;;26.00;42.80;;;;;;5092520;28;20488;-90
2023/07/08 08:53:24;;;;;;;1.85;1.15;;;26.00;41.80;;;;;;5119598;27;20031;-80
2023/07/08 08:56:30;;;;;;;1.10;0.95;;;26.00;41.80;;;;;;5093881;28;20036;-85
2023/07/08 08:59:33;;;;;;;2.03;0.70;;;26.10;41.90;;;;;;5112931;28;20051;-84
2023/07/08 09:02:01;;;;;;;4.53;0.90;;;26.20;40.60;;;;;;5113866;28;20062;-79
2023/07/08 09:04:36;;;;;;;0.73;0.45;;;26.30;41.00;;;;;;5095787;28;20044;-80
2023/07/08 09:07:14;;;;;;;3.22;1.33;;;26.40;41.70;;;;;;5112509;28;20031;-85
2023/07/08 09:10:37;;;;;;;0.63;0.45;;;26.50;41.00;;;;;;5112451;28;20051;-84
2023/07/08 09:13:06;;;;;;;1.02;0.85;;;26.60;40.30;;;;;;5114056;27;20489;-87
2023/07/08 09:15:32;;;;;;;0.57;0.45;;;26.80;40.80;;;;;;5112235;28;20027;-79
2023/07/08 09:18:34;;;;;;;0.93;0.50;;;26.80;39.60;;;;;;5112717;28;20043;-80
2023/07/08 09:21:14;;;;;;;1.17;0.88;;;27.00;40.20;;;;;;5113343;28;20077;-80
2023/07/08 09:23:42;;;;;;;0.30;0.30;;;27.30;39.00;;;;;;5112394;28;20042;-80
2023/07/08 09:26:19;;;;;;;0.70;0.45;;;27.70;38.90;;;;;;5094662;28;20100;-81
2023/07/08 09:28:46;;;;;;;2.03;0.80;;;28.10;38.70;;;;;;5095449;28;20036;-79
2023/07/08 09:31:58;;;;;;;0.70;0.55;;;28.60;37.60;;;;;;5095006;28;20050;-85
2023/07/08 09:34:40;;;;;;;1.08;0.93;;;29.30;36.60;;;;;;5095513;28;20031;-80
2023/07/08 09:37:38;;;;;;;0.40;0.40;;;30.00;36.00;;;;;;5095237;28;20039;-79
2023/07/08 09:40:16;;;;;;;1.40;1.08;;;31.00;34.50;;;;;;5112031;28;20031;-83
2023/07/08 09:42:46;;;;;;;0.40;0.40;;;31.60;33.10;;;;;;5113598;28;20040;-82
2023/07/08 09:45:18;;;;;;;2.67;0.73;;;32.10;31.50;;;;;;5111591;28;20110;-79
2023/07/08 09:47:45;;;;;;;0.30;0.30;;;32.80;30.00;;;;;;5111929;28;20027;-86
2023/07/08 09:50:33;;;;;;;1.38;0.70;;;33.60;28.80;;;;;;5094807;28;20115;-83
2023/07/08 09:53:04;;;;;;;0.43;0.43;;;34.20;28.70;;;;;;5112130;28;20042;-81
2023/07/08 09:55:31;;;;;;;1.02;0.55;;;34.70;27.70;;;;;;5095045;28;20465;-81
2023/07/08 09:58:01;;;;;;;0.50;0.50;;;35.50;27.70;;;;;;5112076;28;20031;-81
2023/07/08 10:00:51;;;;;;;0.40;0.40;;;36.00;26.20;;;;;;5111477;28;20042;-82
2023/07/08 10:03:39;;;;;;;1.98;1.33;;;36.80;26.40;;;;;;5112430;28;20031;-81
2023/07/08 10:06:28;;;;;;;0.52;0.50;;;37.00;24.60;;;;;;5094759;28;20400;-86
2023/07/08 10:08:59;;;;;;;1.55;1.00;;;37.50;24.70;;;;;;5116392;28;20036;-81
2023/07/08 10:11:49;;;;;;;0.43;0.43;;;38.20;23.50;;;;;;5116249;28;20103;-85
2023/07/08 10:14:38;;;;;;;0.95;0.77;;;38.60;22.40;;;;;;5117309;28;20043;-82
2023/07/08 10:17:05;;;;;;;1.02;0.93;;;39.50;22.90;;;;;;5098770;28;20481;-80
2023/07/08 10:19:31;;;;;;;0.57;0.47;;;40.30;19.60;;;;;;5116072;28;20073;-82
2023/07/08 10:22:38;;;;;;;0.80;0.70;;;40.70;20.30;;;;;;5099160;28;20028;-83
2023/07/08 10:25:27;;;;;;;0.60;0.60;;;41.60;20.50;;;;;;5098956;28;20041;-84
2023/07/08 10:28:50;;;;;;;0.95;0.93;;;42.50;18.40;;;;;;5116278;28;20039;-82
2023/07/08 10:32:13;;;;;;;0.70;0.68;;;43.30;19.20;;;;;;5117005;28;20036;-82
2023/07/08 10:35:18;;;;;;;1.40;0.65;;;44.20;18.60;;;;;;5116522;28;20035;-81
2023/07/08 10:38:18;;;;;;;0.60;0.60;;;45.00;17.30;;;;;;5116458;28;20040;-89
2023/07/08 10:41:16;;;;;;;1.23;0.88;;;45.40;17.20;;;;;;5109542;28;20473;-87
2023/07/08 10:44:04;;;;;;;1.85;1.33;;;46.10;16.50;;;;;;5095636;28;20032;-84
2023/07/08 10:47:14;;;;;;;1.42;1.05;;;46.70;16.10;;;;;;5112519;28;20121;-85
2023/07/08 10:50:22;;;;;;;1.35;1.05;;;47.40;15.40;;;;;;5112819;28;20028;-87
2023/07/08 10:53:45;;;;;;;1.13;1.05;;;47.90;13.10;;;;;;5112782;28;20444;-89
2023/07/08 10:56:34;;;;;;;2.10;1.60;;;48.30;13.30;;;;;;5094940;28;20168;-86
2023/07/08 10:59:56;;;;;;;2.55;2.10;;;48.90;12.80;;;;;;5112212;28;20036;-85
2023/07/08 11:03:00;;;;;;;2.30;1.73;;;49.50;13.90;;;;;;5095095;28;20032;-86
2023/07/08 11:06:07;;;;;;;1.73;1.63;;;50.10;12.80;;;;;;5095718;28;20032;-83
2023/07/08 11:09:18;;;;;;;1.77;1.60;;;50.60;11.90;;;;;;5078097;28;20416;-87
2023/07/08 11:12:27;;;;;;;1.40;1.30;;;50.90;12.30;;;;;;5090480;28;20058;-87
2023/07/08 11:15:42;;;;;;;1.90;1.63;;;51.10;11.60;;;;;;5086381;28;20434;-81
2023/07/08 11:18:30;;;;;;;1.83;1.60;;;51.20;10.90;;;;;;5086453;28;20044;-87
2023/07/08 11:21:08;;;;;;;1.50;1.40;;;51.00;11.00;;;;;;5086499;28;20040;-87
2023/07/08 11:23:44;;;;;;;2.05;1.85;;;51.60;11.30;;;;;;5087207;28;20055;-82
2023/07/08 11:26:37;;;;;;;2.20;2.00;;;52.00;10.70;;;;;;5086866;28;20024;-87
2023/07/08 11:29:27;;;;;;;4.85;3.17;;;51.90;8.80;;;;;;5086943;28;20550;-87
2023/07/08 11:31:55;;;;;;;2.35;2.15;;;51.80;9.10;;;;;;5087015;28;20040;-80
2023/07/08 11:34:22;;;;;;;2.20;2.00;;;52.10;9.40;;;;;;5069572;28;20519;-85
2023/07/08 11:36:50;;;;;;;2.67;2.10;;;52.10;10.00;;;;;;5086115;28;20550;-85
2023/07/08 11:40:12;;;;;;;2.08;1.88;;;52.40;10.20;;;;;;5093134;28;20035;-84
2023/07/08 11:43:00;;;;;;;4.32;3.03;;;52.70;9.80;;;;;;5086132;28;20496;-86
2023/07/08 11:45:45;;;;;;;2.13;1.90;;;53.50;10.60;;;;;;5068112;28;20036;-85
2023/07/08 11:48:34;;;;;;;2.90;2.50;;;54.00;10.30;;;;;;5087656;28;20040;-86
2023/07/08 11:51:05;;;;;;;2.50;2.30;;;53.80;9.00;;;;;;5075827;28;20507;-86
2023/07/08 11:53:37;;;;;;;2.25;2.03;;;54.00;9.40;;;;;;5093176;28;20032;-84
2023/07/08 11:56:22;;;;;;;2.92;2.45;;;53.80;9.10;;;;;;5075820;28;20055;-88
2023/07/08 11:59:28;;;;;;;3.70;3.30;;;54.00;10.20;;;;;;5094105;28;20366;-86
2023/07/08 12:02:04;;;;;;;2.97;2.50;;;53.90;9.20;;;;;;5092395;28;20433;-84
2023/07/08 12:05:27;;;;;;;2.35;2.15;;;53.90;9.30;;;;;;5075810;28;20028;-85
2023/07/08 12:08:03;;;;;;;2.70;2.38;;;53.70;9.10;;;;;;5093963;28;20036;-82
2023/07/08 12:10:46;;;;;;;2.97;2.67;;;54.20;9.80;;;;;;5049233;28;1231991;-85
2023/07/08 12:13:20;;;;;;;3.15;2.63;;;54.90;9.20;;;;;;5076862;28;20066;-85
2023/07/08 12:15:47;;;;;;;4.00;3.60;;;54.90;9.30;;;;;;5093953;28;20377;-85
2023/07/08 12:18:38;;;;;;;3.95;3.35;;;54.80;9.00;;;;;;5076729;28;20040;-84
2023/07/08 12:21:07;;;;;;;3.60;3.30;;;54.80;9.30;;;;;;5076209;28;20088;-83
2023/07/08 12:23:33;;;;;;;3.53;3.22;;;55.30;9.10;;;;;;5093113;28;20039;-82
2023/07/08 12:25:59;;;;;;;3.70;2.97;;;55.30;8.30;;;;;;5109859;28;20036;-83
2023/07/08 12:28:25;;;;;;;3.13;2.78;;;55.20;9.20;;;;;;5076049;28;20032;-87
2023/07/08 12:30:54;;;;;;;4.25;3.85;;;55.40;8.90;;;;;;5075051;28;20044;-87
2023/07/08 12:33:39;;;;;;;4.00;3.60;;;55.60;8.70;;;;;;5093279;28;20032;-86
2023/07/08 12:36:06;;;;;;;4.15;3.53;;;55.80;8.90;;;;;;5092491;28;20036;-86
2023/07/08 12:38:52;;;;;;;3.90;3.50;;;55.90;9.10;;;;;;5092877;28;20025;-80
2023/07/08 12:41:39;;;;;;;3.35;3.05;;;55.50;8.80;;;;;;5075588;28;20040;-84
2023/07/08 12:44:35;;;;;;;3.55;3.25;;;55.40;8.70;;;;;;5092812;28;20032;-85
2023/07/08 12:47:02;;;;;;;3.80;3.38;;;55.50;9.30;;;;;;5076022;28;20446;-85
2023/07/08 12:49:29;;;;;;;2.97;2.67;;;55.60;8.50;;;;;;5092615;28;20502;-82
2023/07/08 12:51:56;;;;;;;3.50;3.20;;;55.50;8.80;;;;;;5092523;28;20032;-83
2023/07/08 12:54:22;;;;;;;3.45;3.15;;;55.40;9.30;;;;;;5092834;28;20081;-84
2023/07/08 12:56:48;;;;;;;3.25;2.95;;;55.30;8.90;;;;;;5092368;28;20040;-82
2023/07/08 12:59:20;;;;;;;4.10;3.70;;;55.40;9.20;;;;;;5092226;28;20073;-84
2023/07/08 13:01:47;;;;;;;4.15;3.75;;;55.70;8.70;;;;;;5092240;28;20044;-85
2023/07/08 13:04:14;;;;;;;2.88;2.25;;;54.90;8.60;;;;;;5092700;28;20028;-84
2023/07/08 13:06:43;;;;;;;2.75;2.47;;;54.80;8.80;;;;;;5091936;28;20094;-84
2023/07/08 13:09:48;;;;;;;3.47;3.17;;;54.70;9.60;;;;;;5092519;28;20031;-86
2023/07/08 13:12:24;;;;;;;2.80;2.40;;;54.70;8.60;;;;;;5075577;28;20135;-84
2023/07/08 13:15:12;;;;;;;2.70;2.28;;;53.90;9.50;;;;;;5092369;28;20051;-82
2023/07/08 13:17:40;;;;;;;2.15;1.95;;;53.90;9.60;;;;;;5093657;28;20116;-84
2023/07/08 13:20:31;;;;;;;2.60;2.40;;;53.90;9.40;;;;;;5074648;28;20038;-84
2023/07/08 13:23:16;;;;;;;1.88;1.67;;;53.20;10.20;;;;;;5103038;28;20036;-84
2023/07/08 13:25:42;;;;;;;2.15;1.95;;;51.80;10.60;;;;;;5112280;28;20030;-86
2023/07/08 13:28:29;;;;;;;2.38;1.80;;;50.20;11.10;;;;;;5113516;27;20035;-86
2023/07/08 13:31:16;;;;;;;1.50;1.40;;;48.20;12.30;;;;;;5095068;28;20051;-83
2023/07/08 13:34:07;;;;;;;1.63;1.50;;;46.60;12.90;;;;;;5112484;28;20482;-82